createdAt,value
2023-05-01T00:01:51.677Z,2.20
2023-05-01T00:04:18.517Z,2.12
2023-05-01T00:06:45.714Z,2.50
2023-05-01T00:09:12.145Z,2.20
2023-05-01T00:11:38.733Z,2.15
2023-05-01T00:14:05.660Z,2.08
2023-05-01T00:16:32.254Z,2.20
2023-05-01T00:18:58.861Z,2.10
2023-05-01T00:21:27.818Z,2.30
2023-05-01T00:23:55.022Z,2.37
2023-05-01T00:26:21.610Z,2.30
2023-05-01T00:28:48.207Z,2.20
2023-05-01T00:31:14.824Z,2.50
2023-05-01T00:33:41.174Z,2.80
2023-05-01T00:36:08.575Z,2.30
2023-05-01T00:38:34.792Z,2.20
2023-05-01T00:41:01.341Z,2.20
2023-05-01T00:43:27.923Z,2.30
2023-05-01T00:45:54.677Z,2.20
2023-05-01T00:48:20.894Z,2.30
2023-05-01T00:50:47.155Z,2.50
2023-05-01T00:53:13.752Z,2.33
2023-05-01T00:55:41.794Z,2.30
2023-05-01T00:58:08.166Z,2.33
2023-05-01T01:00:34.747Z,2.30
2023-05-01T01:03:01.009Z,2.20
2023-05-01T01:05:27.744Z,2.30
2023-05-01T01:08:30.629Z,2.30
2023-05-01T01:11:21.279Z,2.37
2023-05-01T01:14:13.851Z,2.20
2023-05-01T01:19:25.179Z,2.20
2023-05-01T01:21:54.202Z,2.10
2023-05-01T01:31:11.388Z,2.20
2023-05-01T01:38:07.265Z,2.20
2023-05-01T01:40:36.903Z,2.30
2023-05-01T01:43:06.966Z,2.20
2023-05-01T01:45:43.172Z,2.35
2023-05-01T01:48:10.994Z,2.20
2023-05-01T01:50:38.239Z,2.25
2023-05-01T01:53:04.863Z,2.30
2023-05-01T01:55:31.539Z,2.30
2023-05-01T01:57:57.845Z,2.28
2023-05-01T02:00:24.571Z,2.50
2023-05-01T02:02:51.700Z,2.20
2023-05-01T02:05:18.280Z,2.20
2023-05-01T02:07:46.687Z,2.30
2023-05-01T02:10:15.455Z,2.20
2023-05-01T02:12:45.694Z,2.15
2023-05-01T02:15:12.246Z,2.40
2023-05-01T02:17:39.096Z,2.30
2023-05-01T02:20:06.002Z,2.40
2023-05-01T02:22:32.979Z,2.40
2023-05-01T02:24:59.486Z,2.30
2023-05-01T02:27:35.666Z,2.28
2023-05-01T02:30:02.741Z,2.10
2023-05-01T02:32:29.312Z,2.47
2023-05-01T02:34:57.358Z,2.30
2023-05-01T02:37:23.928Z,2.20
2023-05-01T02:39:50.091Z,2.17
2023-05-01T02:42:16.485Z,2.20
2023-05-01T02:45:03.528Z,2.20
2023-05-01T02:47:31.407Z,2.30
2023-05-01T02:49:58.205Z,2.30
2023-05-01T02:52:25.055Z,2.20
2023-05-01T02:54:51.567Z,2.30
2023-05-01T02:57:20.156Z,2.30
2023-05-01T02:59:46.976Z,2.40
2023-05-01T03:02:13.186Z,2.50
2023-05-01T03:04:41.250Z,2.20
2023-05-01T03:07:08.563Z,2.30
2023-05-01T03:09:34.954Z,2.20
2023-05-01T03:12:02.303Z,2.25
2023-05-01T03:14:28.809Z,2.20
2023-05-01T03:16:55.369Z,2.10
2023-05-01T03:19:22.009Z,2.27
2023-05-01T03:21:48.537Z,2.35
2023-05-01T03:24:15.103Z,2.50
2023-05-01T03:26:41.328Z,2.30
2023-05-01T03:29:08.323Z,2.10
2023-05-01T03:31:35.036Z,2.10
2023-05-01T03:34:01.608Z,2.22
2023-05-01T03:36:28.231Z,2.10
2023-05-01T03:38:54.760Z,2.20
2023-05-01T03:41:21.469Z,2.33
2023-05-01T03:43:48.692Z,2.20
2023-05-01T03:46:15.284Z,2.20
2023-05-01T03:48:41.919Z,2.28
2023-05-01T03:51:08.590Z,83.22
2023-05-01T03:53:36.088Z,79.05
2023-05-01T03:56:03.809Z,90.68
2023-05-01T03:58:30.470Z,43.00
2023-05-01T04:00:59.987Z,91.10
2023-05-01T04:03:26.866Z,96.18
2023-05-01T04:05:53.476Z,113.80
2023-05-01T04:08:20.016Z,116.28
2023-05-01T04:10:46.542Z,182.25
2023-05-01T04:13:13.093Z,138.77
2023-05-01T04:15:39.364Z,2.20
2023-05-01T04:18:06.055Z,2.20
2023-05-01T04:20:33.633Z,2.20
2023-05-01T04:22:59.834Z,2.30
2023-05-01T04:25:26.978Z,2.20
2023-05-01T04:27:53.199Z,2.47
2023-05-01T04:30:19.775Z,2.40
2023-05-01T04:32:46.443Z,2.20
2023-05-01T04:35:13.113Z,2.20
2023-05-01T04:37:39.766Z,2.20
2023-05-01T04:40:07.249Z,2.30
2023-05-01T04:42:35.242Z,2.25
2023-05-01T04:45:03.434Z,2.30
2023-05-01T04:47:29.724Z,2.12
2023-05-01T04:49:56.583Z,2.50
2023-05-01T04:52:23.393Z,2.42
2023-05-01T04:54:50.583Z,2.30
2023-05-01T04:57:16.762Z,2.30
2023-05-01T04:59:43.278Z,2.25
2023-05-01T05:02:09.750Z,2.40
2023-05-01T05:04:36.416Z,2.40
2023-05-01T05:07:02.950Z,2.47
2023-05-01T05:09:29.550Z,2.40
2023-05-01T05:11:56.040Z,2.40
2023-05-01T05:14:22.268Z,2.30
2023-05-01T05:16:48.458Z,2.30
2023-05-01T05:19:14.804Z,2.22
2023-05-01T05:21:41.398Z,2.15
2023-05-01T05:24:07.623Z,2.40
2023-05-01T05:26:33.840Z,2.40
2023-05-01T05:29:00.383Z,2.30
2023-05-01T05:31:26.566Z,2.30
2023-05-01T05:33:53.277Z,2.20
2023-05-01T05:36:19.505Z,2.50
2023-05-01T05:38:46.931Z,2.40
2023-05-01T05:41:13.173Z,2.30
2023-05-01T05:43:39.600Z,2.40
2023-05-01T05:46:06.237Z,2.30
2023-05-01T05:48:32.474Z,2.40
2023-05-01T05:50:58.815Z,3.00
2023-05-01T05:53:26.125Z,3.20
2023-05-01T05:55:52.736Z,2.80
2023-05-01T05:58:22.937Z,2.60
2023-05-01T06:00:49.393Z,2.42
2023-05-01T06:03:16.369Z,2.60
2023-05-01T06:05:43.157Z,2.95
2023-05-01T06:08:10.001Z,3.10
2023-05-01T06:10:39.998Z,3.92
2023-05-01T06:13:13.334Z,4.87
2023-05-01T06:15:41.323Z,3.25
2023-05-01T06:18:07.891Z,3.62
2023-05-01T06:20:34.269Z,4.45
2023-05-01T06:23:00.434Z,3.80
2023-05-01T06:25:26.646Z,3.25
2023-05-01T06:27:52.873Z,3.92
2023-05-01T06:30:19.343Z,3.75
2023-05-01T06:32:46.181Z,3.95
2023-05-01T06:35:12.688Z,2.60
2023-05-01T06:37:38.857Z,2.80
2023-05-01T06:40:09.047Z,3.55
2023-05-01T06:42:36.259Z,3.53
2023-05-01T06:45:03.234Z,3.60
2023-05-01T06:47:29.699Z,2.60
2023-05-01T06:49:56.223Z,2.75
2023-05-01T06:52:22.641Z,3.83
2023-05-01T06:54:48.911Z,3.80
2023-05-01T06:57:15.121Z,3.70
2023-05-01T06:59:42.085Z,3.37
2023-05-01T07:02:08.358Z,3.05
2023-05-01T07:04:34.589Z,3.53
2023-05-01T07:07:02.806Z,3.70
2023-05-01T07:09:29.039Z,4.00
2023-05-01T07:11:56.420Z,3.10
2023-05-01T07:14:23.256Z,3.30
2023-05-01T07:16:49.653Z,3.20
2023-05-01T07:19:15.932Z,3.25
2023-05-01T07:21:42.433Z,3.03
2023-05-01T07:24:11.893Z,2.60
2023-05-01T07:26:38.125Z,2.90
2023-05-01T07:29:04.453Z,2.75
2023-05-01T07:31:30.653Z,3.03
2023-05-01T07:33:56.992Z,3.15
2023-05-01T07:36:23.321Z,3.30
2023-05-01T07:38:49.887Z,3.17
2023-05-01T07:41:16.425Z,3.12
2023-05-01T07:43:42.574Z,3.22
2023-05-01T07:46:10.699Z,3.53
2023-05-01T07:48:38.839Z,3.60
2023-05-01T07:51:05.752Z,4.12
2023-05-01T07:53:32.463Z,5.40
2023-05-01T07:56:08.234Z,5.57
2023-05-01T07:58:35.504Z,5.50
2023-05-01T08:01:02.132Z,4.85
2023-05-01T08:03:29.597Z,5.10
2023-05-01T08:05:56.635Z,4.85
2023-05-01T08:08:22.923Z,4.60
2023-05-01T08:10:52.407Z,3.50
2023-05-01T08:13:18.825Z,3.92
2023-05-01T08:15:48.378Z,7.47
2023-05-01T08:18:21.095Z,7.72
2023-05-01T08:20:48.162Z,9.70
2023-05-01T08:23:18.252Z,7.45
2023-05-01T08:25:50.479Z,8.27
2023-05-01T08:28:16.943Z,9.50
2023-05-01T08:30:45.848Z,9.95
2023-05-01T08:33:12.167Z,8.43
2023-05-01T08:35:38.407Z,5.80
2023-05-01T08:38:04.561Z,6.68
2023-05-01T08:40:35.803Z,9.63
2023-05-01T08:43:02.154Z,13.70
2023-05-01T08:45:30.415Z,16.52
2023-05-01T08:47:56.882Z,19.60
2023-05-01T08:50:26.229Z,15.00
2023-05-01T08:53:02.887Z,14.80
2023-05-01T08:55:29.669Z,14.02
2023-05-01T08:57:56.316Z,12.37
2023-05-01T09:00:22.966Z,10.57
2023-05-01T09:02:50.110Z,11.65
2023-05-01T09:05:19.629Z,8.45
2023-05-01T09:07:46.100Z,9.38
2023-05-01T09:10:13.513Z,13.65
2023-05-01T09:12:40.336Z,11.63
2023-05-01T09:15:07.258Z,14.57
2023-05-01T09:17:33.666Z,26.12
2023-05-01T09:20:02.001Z,23.67
2023-05-01T09:22:30.312Z,24.55
2023-05-01T09:24:57.214Z,27.00
2023-05-01T09:27:23.618Z,29.15
2023-05-01T09:29:49.890Z,20.05
2023-05-01T09:32:29.425Z,16.25
2023-05-01T09:35:08.702Z,11.98
2023-05-01T09:37:35.193Z,11.52
2023-05-01T09:40:11.415Z,18.77
2023-05-01T09:42:39.177Z,25.02
2023-05-01T09:45:14.586Z,26.10
2023-05-01T09:47:41.938Z,23.40
2023-05-01T09:50:08.743Z,16.67
2023-05-01T09:52:35.056Z,13.55
2023-05-01T09:55:17.700Z,11.30
2023-05-01T09:57:44.899Z,7.28
2023-05-01T10:00:13.843Z,5.25
2023-05-01T10:02:44.415Z,4.20
2023-05-01T10:05:11.119Z,3.60
2023-05-01T10:07:37.970Z,4.00
2023-05-01T10:10:20.824Z,3.35
2023-05-01T10:12:47.934Z,3.85
2023-05-01T10:15:24.517Z,3.72
2023-05-01T10:17:52.712Z,4.05
2023-05-01T10:20:19.153Z,3.70
2023-05-01T10:22:45.976Z,4.45
2023-05-01T10:25:12.300Z,3.90
2023-05-01T10:27:40.375Z,3.80
2023-05-01T10:30:07.265Z,3.78
2023-05-01T10:32:33.659Z,3.70
2023-05-01T10:35:08.970Z,8.60
2023-05-01T10:37:49.036Z,7.97
2023-05-01T10:40:52.238Z,8.35
2023-05-01T10:43:27.965Z,5.72
2023-05-01T10:46:39.905Z,8.00
2023-05-01T10:49:06.493Z,8.63
2023-05-01T10:52:03.879Z,7.82
2023-05-01T10:54:32.477Z,6.40
2023-05-01T10:57:02.625Z,8.80
2023-05-01T11:01:39.492Z,7.70
2023-05-01T11:04:55.084Z,6.20
2023-05-01T11:07:22.520Z,6.43
2023-05-01T11:09:56.989Z,7.80
2023-05-01T11:12:50.356Z,7.43
2023-05-01T11:15:27.447Z,8.63
2023-05-01T11:17:55.223Z,6.68
2023-05-01T11:21:04.074Z,7.30
2023-05-01T11:23:30.575Z,6.00
2023-05-01T11:26:04.110Z,4.97
2023-05-01T11:28:30.490Z,4.95
2023-05-01T11:30:56.722Z,5.55
2023-05-01T11:33:25.136Z,8.73
2023-05-01T11:35:58.981Z,8.40
2023-05-01T11:38:25.254Z,8.05
2023-05-01T11:40:55.619Z,8.10
2023-05-01T11:43:22.900Z,7.70
2023-05-01T11:45:52.299Z,7.40
2023-05-01T11:48:18.746Z,7.70
2023-05-01T11:50:45.629Z,6.70
2023-05-01T11:53:15.378Z,6.78
2023-05-01T11:55:41.639Z,6.30
2023-05-01T11:58:09.116Z,6.60
2023-05-01T12:00:42.093Z,6.47
2023-05-01T12:03:14.987Z,5.90
2023-05-01T12:05:43.204Z,5.22
2023-05-01T12:08:14.158Z,5.78
2023-05-01T12:10:42.007Z,6.15
2023-05-01T12:13:09.269Z,5.45
2023-05-01T12:15:36.736Z,6.55
2023-05-01T12:18:06.771Z,6.87
2023-05-01T12:20:41.268Z,4.87
2023-05-01T12:23:10.405Z,5.03
2023-05-01T12:25:38.671Z,4.78
2023-05-01T12:28:16.201Z,4.43
2023-05-01T12:30:42.812Z,4.50
2023-05-01T12:33:16.174Z,4.90
2023-05-01T12:35:46.007Z,4.90
2023-05-01T12:38:20.089Z,4.72
2023-05-01T12:40:56.953Z,5.00
2023-05-01T12:43:33.749Z,6.07
2023-05-01T12:46:00.183Z,4.80
2023-05-01T12:48:26.616Z,4.65
2023-05-01T12:50:56.337Z,4.93
2023-05-01T12:53:23.882Z,6.50
2023-05-01T12:55:51.787Z,5.95
2023-05-01T12:58:18.237Z,5.90
2023-05-01T13:00:52.135Z,6.22
2023-05-01T13:03:26.191Z,7.32
2023-05-01T13:05:55.715Z,6.15
2023-05-01T13:08:27.087Z,6.00
2023-05-01T13:10:56.555Z,5.47
2023-05-01T13:13:28.044Z,6.10
2023-05-01T13:16:02.210Z,9.02
2023-05-01T13:18:28.582Z,7.50
2023-05-01T13:20:54.862Z,8.13
2023-05-01T13:23:21.309Z,7.05
2023-05-01T13:25:54.967Z,7.35
2023-05-01T13:28:21.269Z,6.55
2023-05-01T13:30:47.507Z,6.20
2023-05-01T13:33:13.793Z,8.63
2023-05-01T13:35:40.029Z,10.25
2023-05-01T13:38:08.579Z,10.63
2023-05-01T13:40:34.760Z,9.57
2023-05-01T13:43:02.636Z,6.85
2023-05-01T13:45:29.121Z,7.07
2023-05-01T13:47:55.986Z,10.48
2023-05-01T13:50:22.388Z,8.30
2023-05-01T13:52:48.572Z,11.40
2023-05-01T13:55:15.270Z,12.35
2023-05-01T13:57:42.542Z,10.02
2023-05-01T14:00:11.086Z,9.05
2023-05-01T14:02:47.753Z,8.55
2023-05-01T14:05:15.045Z,8.00
2023-05-01T14:07:50.184Z,7.80
2023-05-01T14:10:16.382Z,7.87
2023-05-01T14:12:42.619Z,7.40
2023-05-01T14:15:10.876Z,7.75
2023-05-01T14:17:37.165Z,7.50
2023-05-01T14:20:06.917Z,7.40
2023-05-01T14:22:43.734Z,6.90
2023-05-01T14:25:23.683Z,6.90
2023-05-01T14:27:51.518Z,7.30
2023-05-01T14:30:39.066Z,6.78
2023-05-01T14:33:08.997Z,7.80
2023-05-01T14:35:38.469Z,7.32
2023-05-01T14:38:14.203Z,7.40
2023-05-01T14:40:43.574Z,7.68
2023-05-01T14:43:10.467Z,9.10
2023-05-01T14:45:36.740Z,11.40
2023-05-01T14:48:04.111Z,9.75
2023-05-01T14:50:30.724Z,7.80
2023-05-01T14:52:58.181Z,7.32
2023-05-01T14:55:29.069Z,7.50
2023-05-01T14:57:56.469Z,6.47
2023-05-01T15:00:23.250Z,6.20
2023-05-01T15:02:49.988Z,6.30
2023-05-01T15:05:17.029Z,8.48
2023-05-01T15:07:44.419Z,7.60
2023-05-01T15:10:10.918Z,8.80
2023-05-01T15:12:37.503Z,9.57
2023-05-01T15:15:04.313Z,7.72
2023-05-01T15:17:32.384Z,7.68
2023-05-01T15:19:58.926Z,8.52
2023-05-01T15:22:25.100Z,8.13
2023-05-01T15:24:51.438Z,10.25
2023-05-01T15:27:17.826Z,8.57
2023-05-01T15:29:44.050Z,6.30
2023-05-01T15:32:13.830Z,8.60
2023-05-01T15:34:41.943Z,7.50
2023-05-01T15:37:08.144Z,7.22
2023-05-01T15:39:34.312Z,6.32
2023-05-01T15:42:00.603Z,6.60
2023-05-01T15:44:28.004Z,7.28
2023-05-01T15:46:54.369Z,6.30
2023-05-01T15:49:20.741Z,6.62
2023-05-01T15:51:47.055Z,6.43
2023-05-01T15:54:13.284Z,6.05
2023-05-01T15:56:39.574Z,7.75
2023-05-01T15:59:06.357Z,6.20
2023-05-01T16:01:33.367Z,5.07
2023-05-01T16:03:59.771Z,4.57
2023-05-01T16:06:27.935Z,4.60
2023-05-01T16:08:54.283Z,4.60
2023-05-01T16:11:20.723Z,6.00
2023-05-01T16:13:47.891Z,6.28
2023-05-01T16:16:18.757Z,5.50
2023-05-01T16:18:45.536Z,4.90
2023-05-01T16:21:12.556Z,4.70
2023-05-01T16:23:38.984Z,4.90
2023-05-01T16:26:05.608Z,4.97
2023-05-01T16:28:34.890Z,4.95
2023-05-01T16:31:01.136Z,5.00
2023-05-01T16:33:27.423Z,4.90
2023-05-01T16:35:53.596Z,4.45
2023-05-01T16:38:19.865Z,4.05
2023-05-01T16:40:47.366Z,3.60
2023-05-01T16:43:39.786Z,3.30
2023-05-01T16:46:06.131Z,3.00
2023-05-01T16:48:34.786Z,2.70
2023-05-01T16:51:04.885Z,2.80
2023-05-01T16:53:31.721Z,3.33
2023-05-01T16:55:58.260Z,3.25
2023-05-01T16:58:26.147Z,3.10
2023-05-01T17:00:52.650Z,3.30
2023-05-01T17:03:19.004Z,3.47
2023-05-01T17:05:45.322Z,3.42
2023-05-01T17:08:11.735Z,24.08
2023-05-01T17:10:38.108Z,6.18
2023-05-01T17:13:06.452Z,6.70
2023-05-01T17:15:32.830Z,6.30
2023-05-01T17:17:59.130Z,4.80
2023-05-01T17:20:25.429Z,5.10
2023-05-01T17:22:51.730Z,4.75
2023-05-01T17:25:17.936Z,4.60
2023-05-01T17:27:44.201Z,4.20
2023-05-01T17:30:10.901Z,4.10
2023-05-01T17:32:37.865Z,4.22
2023-05-01T17:35:05.468Z,4.70
2023-05-01T17:37:32.865Z,5.10
2023-05-01T17:39:59.290Z,6.28
2023-05-01T17:42:25.752Z,6.03
2023-05-01T17:44:52.400Z,5.68
2023-05-01T17:47:18.707Z,5.43
2023-05-01T17:49:45.205Z,4.57
2023-05-01T17:52:12.072Z,5.47
2023-05-01T17:54:38.456Z,8.05
2023-05-01T17:57:05.054Z,11.02
2023-05-01T17:59:31.373Z,11.40
2023-05-01T18:01:57.809Z,9.60
2023-05-01T18:04:25.042Z,8.00
2023-05-01T18:06:51.887Z,7.20
2023-05-01T18:09:19.307Z,7.62
2023-05-01T18:11:46.512Z,7.05
2023-05-01T18:14:13.243Z,11.55
2023-05-01T18:16:39.573Z,5.37
2023-05-01T18:19:06.091Z,5.28
2023-05-01T18:21:33.126Z,3.75
2023-05-01T18:24:01.772Z,2.80
2023-05-01T18:26:29.329Z,2.60
2023-05-01T18:28:56.048Z,2.80
2023-05-01T18:31:22.957Z,3.03
2023-05-01T18:33:49.995Z,30.08
2023-05-01T18:36:19.608Z,2.83
2023-05-01T18:38:46.306Z,2.70
2023-05-01T18:41:12.716Z,2.60
2023-05-01T18:43:40.799Z,2.40
2023-05-01T18:46:07.202Z,2.42
2023-05-01T18:48:33.618Z,2.30
2023-05-01T18:51:08.533Z,2.40
2023-05-01T18:53:38.708Z,2.50
2023-05-01T18:56:05.750Z,2.80
2023-05-01T18:58:32.178Z,2.70
2023-05-01T19:00:58.434Z,2.55
2023-05-01T19:03:25.005Z,2.78
2023-05-01T19:05:53.676Z,2.70
2023-05-01T19:08:23.172Z,2.75
2023-05-01T19:10:49.589Z,2.85
2023-05-01T19:13:16.604Z,3.00
2023-05-01T19:15:43.171Z,2.80
2023-05-01T19:18:10.136Z,2.40
2023-05-01T19:20:36.476Z,2.60
2023-05-01T19:23:02.896Z,2.50
2023-05-01T19:25:31.719Z,2.55
2023-05-01T19:28:01.548Z,2.67
2023-05-01T19:30:27.912Z,2.92
2023-05-01T19:32:54.297Z,3.00
2023-05-01T19:35:20.526Z,2.58
2023-05-01T19:37:48.783Z,2.50
2023-05-01T19:40:17.213Z,2.70
2023-05-01T19:42:45.007Z,3.40
2023-05-01T19:45:12.066Z,3.60
2023-05-01T19:47:38.748Z,3.40
2023-05-01T19:50:06.032Z,3.45
2023-05-01T19:52:32.414Z,2.87
2023-05-01T19:55:02.946Z,2.50
2023-05-01T19:57:29.538Z,2.45
2023-05-01T19:59:58.192Z,2.75
2023-05-01T20:02:24.964Z,2.70
2023-05-01T20:04:51.455Z,2.90
2023-05-01T20:07:18.626Z,2.80
2023-05-01T20:09:45.548Z,2.72
2023-05-01T20:12:12.053Z,3.03
2023-05-01T20:14:38.254Z,3.80
2023-05-01T20:17:06.506Z,3.60
2023-05-01T20:19:33.040Z,3.80
2023-05-01T20:21:59.376Z,3.65
2023-05-01T20:24:25.763Z,3.50
2023-05-01T20:26:55.130Z,3.50
2023-05-01T20:29:21.485Z,3.50
2023-05-01T20:31:50.676Z,3.45
2023-05-01T20:34:17.225Z,3.30
2023-05-01T20:36:44.224Z,3.22
2023-05-01T20:39:11.160Z,3.10
2023-05-01T20:41:37.463Z,3.20
2023-05-01T20:44:04.790Z,2.87
2023-05-01T20:46:31.291Z,2.80
2023-05-01T20:48:58.415Z,2.70
2023-05-01T20:51:26.676Z,2.70
2023-05-01T20:53:53.139Z,2.50
2023-05-01T20:56:19.537Z,2.60
2023-05-01T20:58:45.908Z,2.40
2023-05-01T21:01:15.063Z,2.40
2023-05-01T21:03:42.459Z,2.30
2023-05-01T21:06:08.779Z,2.30
2023-05-01T21:08:35.102Z,2.30
2023-05-01T21:11:02.027Z,2.50
2023-05-01T21:13:28.321Z,2.40
2023-05-01T21:15:54.594Z,2.30
2023-05-01T21:18:21.114Z,2.30
2023-05-01T21:20:48.082Z,2.30
2023-05-01T21:23:15.055Z,2.20
2023-05-01T21:25:41.580Z,2.15
2023-05-01T21:28:11.902Z,2.20
2023-05-01T21:30:38.334Z,2.30
2023-05-01T21:33:05.848Z,2.20
2023-05-01T21:35:32.281Z,2.30
2023-05-01T21:37:58.621Z,2.20
2023-05-01T21:40:25.049Z,2.20
2023-05-01T21:42:52.578Z,2.20
2023-05-01T21:45:19.104Z,2.20
2023-05-01T21:47:52.540Z,2.00
2023-05-01T21:50:19.424Z,2.30
2023-05-01T21:52:47.527Z,2.30
2023-05-01T21:55:21.230Z,2.20
2023-05-01T21:57:49.155Z,2.35
2023-05-01T22:00:15.611Z,2.47
2023-05-01T22:02:43.038Z,2.20
2023-05-01T22:05:09.926Z,2.20
2023-05-01T22:07:43.058Z,2.30
2023-05-01T22:10:15.182Z,2.20
2023-05-01T22:12:41.525Z,2.30
2023-05-01T22:15:08.895Z,2.25
2023-05-01T22:17:36.043Z,2.12
2023-05-01T22:20:03.772Z,2.53
2023-05-01T22:22:29.995Z,2.30
2023-05-01T22:24:56.286Z,2.40
2023-05-01T22:27:22.478Z,2.30
2023-05-01T22:29:48.781Z,2.30
2023-05-01T22:32:15.025Z,2.30
2023-05-01T22:34:43.961Z,2.30
2023-05-01T22:37:10.409Z,2.30
2023-05-01T22:39:36.673Z,2.30
2023-05-01T22:42:03.244Z,2.30
2023-05-01T22:44:29.732Z,2.30
2023-05-01T22:46:55.961Z,2.30
2023-05-01T22:49:22.689Z,2.33
2023-05-01T22:51:48.883Z,2.25
2023-05-01T22:54:15.272Z,2.47
2023-05-01T22:56:41.577Z,2.40
2023-05-01T22:59:07.805Z,2.50
2023-05-01T23:01:34.060Z,2.47
2023-05-01T23:04:01.521Z,2.53
2023-05-01T23:06:28.643Z,2.70
2023-05-01T23:08:54.970Z,2.60
2023-05-01T23:11:21.426Z,2.80
2023-05-01T23:13:49.092Z,2.83
2023-05-01T23:16:15.651Z,2.80
2023-05-01T23:18:41.964Z,2.75
2023-05-01T23:21:09.780Z,2.80
2023-05-01T23:23:37.344Z,2.60
2023-05-01T23:26:08.638Z,2.50
2023-05-01T23:28:39.307Z,2.47
2023-05-01T23:31:11.055Z,2.40
2023-05-01T23:33:37.320Z,2.40
2023-05-01T23:36:04.043Z,2.30
2023-05-01T23:38:30.279Z,2.20
2023-05-01T23:40:56.517Z,2.20
2023-05-01T23:43:22.936Z,2.20
2023-05-01T23:45:49.391Z,2.17
2023-05-01T23:48:15.647Z,2.28
2023-05-01T23:50:41.936Z,2.30
2023-05-01T23:53:08.146Z,2.20
2023-05-01T23:55:34.815Z,2.30
2023-05-01T23:58:01.378Z,2.40
